Time;durP1;ratioP1;P1;durP2;ratioP2;P2;SDS_P1;SDS_P2;PMS_P1;PMS_P2;Temp;Humidity;BMP_temperature;BMP_pressure;BME280_temperature;BME280_humidity;BME280_pressure;Samples;Min_cycle;Max_cycle;Signal;HPM_P1;HPM_P2
2022/02/19 00:00:12;;;;;;;7.72;1.40;;;8.10;99.90;;;;;;5067607;28;20883;-55
2022/02/19 00:02:38;;;;;;;6.95;1.23;;;8.00;99.90;;;;;;5062386;28;20865;-55
2022/02/19 00:05:05;;;;;;;9.02;1.45;;;8.00;99.90;;;;;;5069097;28;20371;-55
2022/02/19 00:07:30;;;;;;;8.18;1.10;;;8.00;99.90;;;;;;5069034;28;20403;-57
2022/02/19 00:09:56;;;;;;;7.18;1.10;;;8.00;99.90;;;;;;5062252;28;20418;-54
2022/02/19 00:12:21;;;;;;;7.07;1.33;;;7.90;99.90;;;;;;5073099;28;20368;-54
2022/02/19 00:14:47;;;;;;;7.00;1.10;;;7.90;99.90;;;;;;5065760;28;20395;-55
2022/02/19 00:17:13;;;;;;;6.20;1.10;;;7.80;99.90;;;;;;5070123;28;20415;-55
2022/02/19 00:19:39;;;;;;;10.40;1.63;;;7.80;99.90;;;;;;5072212;28;20414;-55
2022/02/19 00:22:05;;;;;;;5.75;0.80;;;7.90;99.90;;;;;;5073326;28;20384;-55
2022/02/19 00:24:32;;;;;;;9.13;1.52;;;8.00;99.90;;;;;;5072700;28;20379;-57
2022/02/19 00:26:58;;;;;;;12.03;1.50;;;7.80;99.90;;;;;;5072410;28;20411;-54
2022/02/19 00:29:23;;;;;;;7.45;1.20;;;7.80;99.90;;;;;;5072799;28;20392;-54
2022/02/19 00:31:49;;;;;;;8.38;1.40;;;7.80;99.90;;;;;;5071969;28;20921;-55
2022/02/19 00:34:15;;;;;;;8.00;1.50;;;7.70;99.90;;;;;;5073130;28;20385;-55
2022/02/19 00:36:41;;;;;;;7.55;1.40;;;7.70;99.90;;;;;;5071939;28;20474;-55
2022/02/19 00:39:07;;;;;;;6.85;1.20;;;7.70;99.90;;;;;;5070043;28;20393;-55
2022/02/19 00:41:33;;;;;;;8.77;1.30;;;7.70;99.90;;;;;;5068611;28;20397;-58
2022/02/19 00:43:59;;;;;;;9.88;1.63;;;7.80;99.90;;;;;;5072610;28;20399;-55
2022/02/19 00:46:25;;;;;;;10.98;2.00;;;8.90;99.90;;;;;;5072469;28;20427;-55
2022/02/19 00:48:50;;;;;;;9.83;1.27;;;7.70;99.90;;;;;;5069345;28;20458;-55
2022/02/19 00:51:18;;;;;;;8.80;1.10;;;7.70;99.90;;;;;;5070113;28;20395;-55
2022/02/19 00:53:44;;;;;;;19.92;1.63;;;7.60;99.90;;;;;;5070626;28;20384;-55
2022/02/19 00:56:10;;;;;;;7.35;1.33;;;7.70;99.90;;;;;;5072369;28;20380;-55
2022/02/19 00:58:36;;;;;;;8.00;1.30;;;7.70;99.90;;;;;;5071777;28;20406;-55
2022/02/19 01:01:03;;;;;;;9.90;1.40;;;7.70;99.90;;;;;;5072145;28;20734;-55
2022/02/19 01:03:30;;;;;;;7.35;1.75;;;7.70;99.90;;;;;;5072093;28;20376;-55
2022/02/19 01:05:55;;;;;;;8.57;1.40;;;7.70;99.90;;;;;;5071242;28;20870;-55
2022/02/19 01:08:21;;;;;;;8.30;1.65;;;7.70;99.90;;;;;;5054167;28;20486;-54
2022/02/19 01:10:48;;;;;;;7.43;1.23;;;9.40;99.90;;;;;;5071330;28;20947;-55
2022/02/19 01:13:13;;;;;;;9.30;1.90;;;7.70;99.90;;;;;;5071966;28;20387;-55
2022/02/19 01:15:41;;;;;;;7.57;1.50;;;8.90;99.90;;;;;;5071345;28;20422;-55
2022/02/19 01:18:08;;;;;;;6.75;1.75;;;7.70;99.90;;;;;;5071553;28;20885;-55
2022/02/19 01:20:34;;;;;;;9.43;1.48;;;7.70;99.90;;;;;;5070924;28;20390;-57
2022/02/19 01:22:59;;;;;;;10.73;1.63;;;7.70;99.90;;;;;;5071499;28;20889;-55
2022/02/19 01:25:25;;;;;;;6.50;1.00;;;7.80;99.90;;;;;;5071909;28;20418;-55
2022/02/19 01:27:51;;;;;;;8.52;1.40;;;7.70;99.90;;;;;;5070753;28;20447;-55
2022/02/19 01:30:16;;;;;;;7.13;1.00;;;7.70;99.90;;;;;;5069207;28;20380;-55
2022/02/19 01:32:42;;;;;;;9.45;1.70;;;7.80;99.00;;;;;;5070769;28;20702;-54
2022/02/19 01:35:08;;;;;;;5.90;1.30;;;7.80;99.60;;;;;;5072073;28;20463;-55
2022/02/19 01:37:34;;;;;;;7.85;1.30;;;7.70;99.30;;;;;;5071319;28;20383;-58
2022/02/19 01:40:00;;;;;;;6.10;1.20;;;7.70;99.40;;;;;;5071594;28;20738;-55
2022/02/19 01:42:27;;;;;;;6.05;1.10;;;7.70;99.20;;;;;;5071560;28;20390;-55
2022/02/19 01:44:53;;;;;;;8.57;1.00;;;7.60;98.70;;;;;;5070870;28;20509;-55
2022/02/19 01:47:19;;;;;;;6.10;0.70;;;7.60;98.40;;;;;;5071146;28;20411;-54
2022/02/19 01:49:45;;;;;;;7.20;0.90;;;7.60;98.50;;;;;;5070392;28;20866;-55
2022/02/19 01:52:16;;;;;;;6.60;1.00;;;7.60;97.80;;;;;;5071548;28;20388;-54
2022/02/19 01:54:42;;;;;;;6.55;0.98;;;7.50;98.60;;;;;;5068141;28;20383;-54
2022/02/19 01:57:08;;;;;;;5.50;0.85;;;7.50;98.10;;;;;;5069708;28;20403;-55
2022/02/19 01:59:39;;;;;;;5.30;0.70;;;7.50;98.10;;;;;;5068082;28;20368;-57
2022/02/19 02:02:05;;;;;;;8.23;1.90;;;7.40;98.20;;;;;;5069396;28;20388;-55
2022/02/19 02:04:31;;;;;;;7.15;1.10;;;7.40;99.50;;;;;;5071416;28;20899;-55
2022/02/19 02:06:57;;;;;;;6.95;1.40;;;7.00;98.90;;;;;;5070435;28;20889;-55
2022/02/19 02:09:23;;;;;;;8.45;1.95;;;7.30;99.10;;;;;;5070978;28;20387;-55
2022/02/19 02:11:52;;;;;;;7.00;1.30;;;7.30;99.30;;;;;;5070360;28;20445;-54
2022/02/19 02:14:18;;;;;;;6.32;0.90;;;7.30;99.90;;;;;;5070982;28;20437;-54
2022/02/19 02:16:49;;;;;;;8.00;1.30;;;7.20;99.70;;;;;;5070169;28;20776;-54
2022/02/19 02:19:15;;;;;;;8.38;1.30;;;7.20;99.70;;;;;;5070442;28;20438;-54
2022/02/19 02:21:41;;;;;;;7.00;0.90;;;7.20;99.40;;;;;;5069217;28;20384;-54
2022/02/19 02:24:07;;;;;;;8.07;0.82;;;7.10;99.90;;;;;;5068918;28;20383;-56
2022/02/19 02:26:34;;;;;;;10.07;1.10;;;7.10;99.90;;;;;;5070404;28;20426;-59
2022/02/19 02:29:00;;;;;;;9.50;1.20;;;8.10;99.90;;;;;;5070609;28;20375;-55
2022/02/19 02:31:26;;;;;;;7.25;1.90;;;7.10;99.90;;;;;;5069921;28;20741;-54
2022/02/19 02:33:53;;;;;;;7.90;1.33;;;7.00;99.90;;;;;;5070215;28;21070;-54
2022/02/19 02:36:19;;;;;;;8.95;1.30;;;7.00;99.90;;;;;;5070476;28;20376;-54
2022/02/19 02:38:46;;;;;;;8.38;1.27;;;7.00;99.90;;;;;;5065894;28;20453;-54
2022/02/19 02:41:14;;;;;;;13.60;1.80;;;7.00;99.90;;;;;;5065320;28;20372;-54
2022/02/19 02:43:40;;;;;;;6.05;1.02;;;6.90;99.90;;;;;;5057149;28;20390;-54
2022/02/19 02:46:06;;;;;;;12.60;1.60;;;8.10;99.90;;;;;;5070402;28;20391;-54
2022/02/19 02:48:31;;;;;;;10.30;1.70;;;7.10;99.90;;;;;;5070293;28;20647;-56
2022/02/19 02:50:59;;;;;;;11.23;1.80;;;6.90;99.90;;;;;;5069409;28;20930;-56
2022/02/19 02:53:26;;;;;;;7.90;1.33;;;6.80;99.90;;;;;;5070287;28;20384;-56
2022/02/19 02:55:52;;;;;;;7.88;1.83;;;6.80;99.90;;;;;;5069470;28;20390;-56
2022/02/19 02:58:18;;;;;;;10.10;1.48;;;6.80;99.90;;;;;;5070341;28;20390;-56
2022/02/19 03:00:44;;;;;;;6.82;1.00;;;6.80;99.90;;;;;;5069470;28;20384;-56
2022/02/19 03:03:10;;;;;;;9.40;1.37;;;6.80;99.90;;;;;;5070146;28;20380;-56
2022/02/19 03:05:36;;;;;;;9.27;1.20;;;6.70;99.90;;;;;;5069410;28;20399;-58
2022/02/19 03:08:01;;;;;;;8.65;1.27;;;6.80;99.70;;;;;;5069921;28;20771;-57
2022/02/19 03:10:27;;;;;;;8.90;1.33;;;6.80;99.80;;;;;;5069944;28;20471;-57
2022/02/19 03:12:52;;;;;;;8.50;1.40;;;7.30;99.90;;;;;;5069230;28;21299;-56
2022/02/19 03:15:19;;;;;;;6.37;0.90;;;6.60;99.90;;;;;;5069657;28;20380;-56
2022/02/19 03:17:46;;;;;;;8.27;1.30;;;6.60;99.80;;;;;;5069177;28;20395;-56
2022/02/19 03:20:18;;;;;;;10.55;1.23;;;6.70;99.90;;;;;;5037581;28;20751;-56
2022/02/19 03:22:45;;;;;;;5.60;0.90;;;6.60;99.40;;;;;;5031722;28;20459;-56
2022/02/19 03:25:12;;;;;;;6.47;1.17;;;6.90;99.90;;;;;;5032029;28;20382;-56
2022/02/19 03:27:38;;;;;;;9.88;1.48;;;6.50;99.60;;;;;;5039081;28;20451;-57
2022/02/19 03:30:06;;;;;;;5.35;1.23;;;6.50;99.90;;;;;;5039312;28;20415;-56
2022/02/19 03:32:32;;;;;;;8.13;1.45;;;6.40;99.90;;;;;;5039671;28;20395;-56
2022/02/19 03:34:57;;;;;;;9.43;0.98;;;6.40;99.90;;;;;;5039539;28;20386;-56
2022/02/19 03:37:23;;;;;;;6.13;1.27;;;6.30;99.90;;;;;;5038098;28;20400;-56
2022/02/19 03:39:49;;;;;;;8.60;1.40;;;6.30;99.90;;;;;;5039793;28;20874;-56
2022/02/19 03:42:15;;;;;;;7.82;1.00;;;6.30;99.90;;;;;;5040361;28;20437;-55
2022/02/19 03:44:40;;;;;;;10.60;1.50;;;6.20;99.90;;;;;;5037229;28;20379;-56
2022/02/19 03:47:06;;;;;;;6.95;1.40;;;6.20;99.90;;;;;;5041181;28;20437;-56
2022/02/19 03:49:32;;;;;;;8.20;1.42;;;6.10;99.90;;;;;;5038806;28;20388;-55
2022/02/19 03:51:57;;;;;;;8.23;1.23;;;6.00;99.90;;;;;;5039990;28;20387;-56
2022/02/19 03:54:23;;;;;;;10.00;1.80;;;7.30;99.90;;;;;;5038353;28;20931;-56
2022/02/19 03:56:48;;;;;;;8.27;1.60;;;6.00;99.90;;;;;;5041308;28;20413;-56
2022/02/19 03:59:14;;;;;;;7.03;1.38;;;6.00;99.90;;;;;;5037436;28;20895;-56
2022/02/19 04:01:44;;;;;;;9.65;1.55;;;6.00;99.90;;;;;;5039514;28;20377;-57
2022/02/19 04:04:10;;;;;;;7.05;1.20;;;6.10;99.90;;;;;;5039355;28;20470;-56
2022/02/19 04:06:36;;;;;;;7.47;1.65;;;6.00;99.90;;;;;;5038092;28;20416;-59
2022/02/19 04:09:03;;;;;;;7.93;1.20;;;5.90;99.90;;;;;;5036506;28;20418;-56
2022/02/19 04:11:29;;;;;;;6.25;1.30;;;5.90;99.90;;;;;;5039441;28;20382;-56
2022/02/19 04:13:55;;;;;;;6.80;0.90;;;5.90;99.90;;;;;;5038944;28;20463;-56
2022/02/19 04:16:21;;;;;;;5.50;1.10;;;5.80;99.90;;;;;;5037968;28;20394;-56
2022/02/19 04:18:47;;;;;;;10.43;1.70;;;5.80;99.90;;;;;;5047217;28;20466;-56
2022/02/19 04:21:13;;;;;;;10.75;1.60;;;5.80;99.90;;;;;;5068957;28;20440;-56
2022/02/19 04:23:38;;;;;;;9.25;1.50;;;5.90;99.90;;;;;;5068188;28;20384;-57
2022/02/19 04:26:04;;;;;;;7.50;1.10;;;5.90;99.90;;;;;;5069158;28;20425;-56
2022/02/19 04:28:30;;;;;;;10.15;1.30;;;5.80;99.90;;;;;;5064247;28;20407;-56
2022/02/19 04:30:56;;;;;;;9.20;1.50;;;7.10;99.90;;;;;;5063651;28;20415;-56
2022/02/19 04:33:23;;;;;;;5.68;1.40;;;6.70;99.90;;;;;;5068647;28;20391;-56
2022/02/19 04:35:49;;;;;;;8.10;1.50;;;5.70;99.90;;;;;;5068262;28;20408;-56
2022/02/19 04:38:16;;;;;;;9.98;1.50;;;5.70;99.90;;;;;;5068794;28;20418;-57
2022/02/19 04:40:42;;;;;;;6.82;1.35;;;5.70;99.90;;;;;;5067839;28;20857;-57
2022/02/19 04:43:09;;;;;;;10.20;2.30;;;5.60;99.90;;;;;;5068929;28;20853;-56
2022/02/19 04:45:35;;;;;;;8.07;1.08;;;5.70;99.90;;;;;;5068864;28;20494;-59
2022/02/19 04:48:01;;;;;;;7.18;1.40;;;5.70;99.90;;;;;;5068097;28;20428;-56
2022/02/19 04:50:27;;;;;;;8.27;1.63;;;5.60;99.90;;;;;;5068978;28;20407;-56
2022/02/19 04:52:53;;;;;;;7.93;1.40;;;5.60;99.90;;;;;;5068304;28;20820;-56
2022/02/19 04:55:18;;;;;;;7.15;1.23;;;5.60;99.90;;;;;;5069798;28;20427;-56
2022/02/19 04:57:45;;;;;;;8.93;1.60;;;5.60;99.90;;;;;;5068762;28;20395;-56
2022/02/19 05:00:16;;;;;;;10.23;1.50;;;5.50;99.90;;;;;;5071137;28;20388;-56
2022/02/19 05:02:41;;;;;;;8.88;1.77;;;5.50;99.90;;;;;;5071504;28;20384;-56
2022/02/19 05:05:08;;;;;;;7.43;1.83;;;5.50;99.90;;;;;;5072506;28;20376;-56
2022/02/19 05:07:34;;;;;;;5.28;1.02;;;5.40;99.90;;;;;;5072311;28;20441;-55
2022/02/19 05:09:59;;;;;;;10.03;1.40;;;5.40;99.90;;;;;;5071290;28;20515;-56
2022/02/19 05:12:25;;;;;;;7.80;1.70;;;5.40;99.90;;;;;;5072263;28;20434;-56
2022/02/19 05:14:50;;;;;;;8.68;2.00;;;5.40;99.90;;;;;;5071281;28;20416;-55
2022/02/19 05:17:16;;;;;;;7.10;1.40;;;5.30;99.90;;;;;;5072240;28;20388;-56
2022/02/19 05:19:42;;;;;;;10.18;1.45;;;5.30;99.90;;;;;;5070975;28;20396;-56
2022/02/19 05:22:08;;;;;;;8.27;1.48;;;5.40;99.90;;;;;;5072411;28;20441;-56
2022/02/19 05:24:34;;;;;;;7.97;1.30;;;5.30;99.90;;;;;;5071884;28;20411;-56
2022/02/19 05:27:00;;;;;;;9.60;2.08;;;5.30;99.90;;;;;;5071022;28;20450;-56
2022/02/19 05:29:26;;;;;;;7.23;1.20;;;5.20;99.90;;;;;;5069252;28;20394;-56
2022/02/19 05:31:51;;;;;;;8.73;1.20;;;5.20;99.90;;;;;;5070573;28;20384;-56
2022/02/19 05:34:17;;;;;;;10.45;1.67;;;5.40;99.90;;;;;;5072020;28;20383;-56
2022/02/19 05:36:43;;;;;;;8.40;1.50;;;5.20;99.90;;;;;;5051680;28;20490;-56
2022/02/19 05:39:08;;;;;;;10.70;1.73;;;5.20;99.90;;;;;;5071513;28;20404;-57
2022/02/19 05:41:36;;;;;;;11.77;1.92;;;5.10;99.90;;;;;;5071692;28;20384;-56
2022/02/19 05:44:04;;;;;;;7.20;1.23;;;5.20;99.90;;;;;;5071042;28;20407;-56
2022/02/19 05:46:34;;;;;;;8.90;1.60;;;5.10;99.90;;;;;;5071634;28;20403;-56
2022/02/19 05:49:00;;;;;;;8.90;1.70;;;5.10;99.90;;;;;;5070914;28;20415;-56
2022/02/19 05:51:27;;;;;;;5.10;1.08;;;5.90;99.90;;;;;;5071664;28;20384;-56
2022/02/19 05:53:53;;;;;;;8.63;1.40;;;5.00;99.90;;;;;;5070356;28;20780;-56
2022/02/19 05:56:18;;;;;;;9.27;1.60;;;5.10;99.90;;;;;;5071200;28;20380;-56
2022/02/19 05:58:44;;;;;;;8.17;1.40;;;5.00;99.90;;;;;;5052529;28;20437;-56
2022/02/19 06:01:10;;;;;;;8.35;1.60;;;5.50;99.90;;;;;;5071628;28;20388;-56
2022/02/19 06:03:38;;;;;;;7.53;1.30;;;4.90;99.90;;;;;;5068766;28;20403;-58
2022/02/19 06:06:04;;;;;;;9.85;1.23;;;4.90;99.90;;;;;;5069697;28;20395;-56
2022/02/19 06:08:30;;;;;;;7.20;1.33;;;4.90;99.90;;;;;;5068526;28;20839;-55
2022/02/19 06:10:56;;;;;;;14.00;1.73;;;4.90;99.90;;;;;;5069018;28;20384;-56
2022/02/19 06:13:22;;;;;;;7.82;1.42;;;4.90;99.90;;;;;;5071253;28;20380;-56
2022/02/19 06:15:48;;;;;;;11.55;2.10;;;5.30;99.90;;;;;;5067458;28;20380;-55
2022/02/19 06:18:13;;;;;;;6.63;0.97;;;4.80;99.90;;;;;;5067378;28;20449;-55
2022/02/19 06:20:39;;;;;;;7.77;1.40;;;5.80;99.90;;;;;;5062834;28;20395;-58
2022/02/19 06:23:05;;;;;;;8.45;1.35;;;4.80;99.90;;;;;;5049143;28;20436;-56
2022/02/19 06:25:30;;;;;;;8.63;2.20;;;4.80;99.90;;;;;;5070424;28;20376;-56
2022/02/19 06:27:56;;;;;;;7.35;1.27;;;4.90;99.90;;;;;;5051960;28;20432;-56
2022/02/19 06:30:22;;;;;;;13.10;1.17;;;5.00;99.90;;;;;;5069260;28;20467;-57
2022/02/19 06:32:49;;;;;;;9.60;1.52;;;4.80;99.90;;;;;;5064534;28;20423;-54
2022/02/19 06:35:15;;;;;;;7.90;1.40;;;4.80;99.90;;;;;;5052244;28;20445;-54
2022/02/19 06:37:42;;;;;;;9.63;1.40;;;4.80;99.90;;;;;;5060281;28;20388;-57
2022/02/19 06:40:09;;;;;;;7.97;1.80;;;4.80;99.90;;;;;;5070189;28;20446;-55
2022/02/19 06:42:36;;;;;;;12.07;1.23;;;4.80;99.90;;;;;;5052546;28;20406;-55
2022/02/19 06:45:04;;;;;;;6.97;1.55;;;4.90;99.90;;;;;;5069676;28;20433;-55
2022/02/19 06:47:30;;;;;;;9.18;1.40;;;4.80;99.90;;;;;;5070099;28;20438;-55
2022/02/19 06:49:56;;;;;;;7.43;1.40;;;4.80;99.90;;;;;;5069189;28;20568;-55
2022/02/19 06:52:22;;;;;;;9.23;1.58;;;4.80;99.90;;;;;;5070266;28;20380;-57
2022/02/19 06:54:48;;;;;;;6.43;1.17;;;4.80;99.90;;;;;;5069134;28;20863;-54
2022/02/19 06:57:15;;;;;;;6.68;1.40;;;5.10;99.90;;;;;;5070161;28;20391;-55
2022/02/19 06:59:41;;;;;;;8.25;1.20;;;5.00;99.90;;;;;;5069183;28;20416;-58
2022/02/19 07:02:06;;;;;;;7.10;1.30;;;4.80;99.90;;;;;;5069794;28;20430;-55
2022/02/19 07:04:32;;;;;;;8.90;2.13;;;5.50;99.90;;;;;;5046302;28;20431;-55
2022/02/19 07:06:58;;;;;;;7.65;1.77;;;4.90;99.90;;;;;;5067209;28;20395;-55
2022/02/19 07:09:24;;;;;;;9.98;1.67;;;5.20;99.90;;;;;;5065506;28;20456;-55
2022/02/19 07:11:50;;;;;;;9.52;1.30;;;5.20;99.90;;;;;;5069079;28;20380;-55
2022/02/19 07:14:16;;;;;;;11.02;1.38;;;4.90;99.90;;;;;;5069861;28;20395;-56
2022/02/19 07:16:42;;;;;;;15.25;1.80;;;4.90;99.90;;;;;;5069141;28;20375;-56
2022/02/19 07:19:07;;;;;;;8.50;1.60;;;6.60;99.90;;;;;;5067116;28;20412;-55
2022/02/19 07:21:33;;;;;;;7.40;1.80;;;5.00;99.90;;;;;;5068864;28;20906;-56
2022/02/19 07:23:59;;;;;;;9.17;1.93;;;5.00;99.90;;;;;;5067363;28;20474;-55
2022/02/19 07:26:25;;;;;;;7.40;1.30;;;6.60;99.90;;;;;;5073180;28;20390;-55
2022/02/19 07:28:52;;;;;;;8.43;1.52;;;5.40;99.90;;;;;;5072145;28;20461;-55
2022/02/19 07:31:17;;;;;;;9.07;1.38;;;5.40;99.90;;;;;;5086272;28;20406;-56
2022/02/19 07:33:43;;;;;;;6.30;1.27;;;5.40;99.90;;;;;;5073067;28;20393;-55
2022/02/19 07:36:09;;;;;;;6.30;1.03;;;5.70;99.90;;;;;;5081287;28;20420;-55
2022/02/19 07:38:34;;;;;;;13.25;1.35;;;5.40;99.90;;;;;;5069323;28;20452;-55
2022/02/19 07:41:00;;;;;;;7.67;1.47;;;5.20;99.90;;;;;;5064824;28;21007;-55
2022/02/19 07:43:26;;;;;;;8.15;1.38;;;5.30;99.90;;;;;;5069045;28;20396;-56
2022/02/19 07:45:51;;;;;;;6.75;1.30;;;5.30;99.90;;;;;;5055559;28;20399;-57
2022/02/19 07:48:17;;;;;;;7.17;1.57;;;5.30;99.90;;;;;;5070030;28;20431;-55
2022/02/19 07:58:55;;;;;;;8.55;1.33;;;5.70;99.90;;;;;;5056711;28;20735;-56
2022/02/19 08:01:21;;;;;;;7.53;1.50;;;5.90;99.90;;;;;;5066368;28;20376;-56
2022/02/19 08:03:46;;;;;;;9.67;1.80;;;6.10;99.90;;;;;;5065883;28;20399;-56
2022/02/19 08:06:12;;;;;;;10.27;1.90;;;7.30;99.90;;;;;;5063759;28;20415;-56
2022/02/19 08:08:38;;;;;;;7.77;1.20;;;7.00;99.90;;;;;;5060348;28;20411;-56
2022/02/19 08:11:05;;;;;;;12.50;1.92;;;7.20;99.90;;;;;;5064884;28;20868;-54
2022/02/19 08:13:31;;;;;;;5.55;1.30;;;7.30;99.90;;;;;;5066955;28;20933;-54
2022/02/19 08:15:57;;;;;;;8.97;1.80;;;7.10;99.90;;;;;;5067847;28;20388;-54
2022/02/19 08:18:23;;;;;;;9.45;1.13;;;7.20;99.90;;;;;;5068485;28;20404;-54
2022/02/19 08:20:52;;;;;;;13.68;1.52;;;7.10;99.90;;;;;;5068179;28;20433;-55
2022/02/19 08:23:20;;;;;;;12.65;1.90;;;7.40;99.90;;;;;;5069000;28;20455;-54
2022/02/19 08:25:46;;;;;;;9.07;1.60;;;7.40;99.90;;;;;;5068028;28;20883;-54
2022/02/19 08:28:12;;;;;;;10.60;1.48;;;7.70;99.90;;;;;;5069045;28;20457;-54
2022/02/19 08:30:41;;;;;;;8.05;1.70;;;7.40;99.90;;;;;;5071149;28;20746;-57
2022/02/19 08:33:09;;;;;;;12.25;2.08;;;8.10;99.90;;;;;;5071805;28;20400;-54
2022/02/19 08:35:36;;;;;;;8.75;1.70;;;8.50;99.90;;;;;;5071347;28;20388;-56
2022/02/19 08:38:02;;;;;;;9.23;2.00;;;9.30;99.90;;;;;;5056714;28;20405;-55
2022/02/19 08:40:28;;;;;;;6.70;1.30;;;9.70;99.90;;;;;;5073859;28;20391;-57
2022/02/19 08:42:54;;;;;;;7.03;1.70;;;9.70;98.70;;;;;;5072007;28;20383;-55
2022/02/19 08:45:21;;;;;;;8.95;1.77;;;9.60;99.10;;;;;;5068603;28;20539;-57
2022/02/19 08:47:48;;;;;;;7.75;1.38;;;9.20;98.50;;;;;;5068077;28;20930;-55
2022/02/19 08:50:16;;;;;;;12.63;1.65;;;9.20;98.90;;;;;;5068948;28;20399;-55
2022/02/19 08:52:44;;;;;;;7.93;1.25;;;9.30;98.70;;;;;;5069462;28;20386;-57
2022/02/19 08:55:11;;;;;;;8.73;1.80;;;9.30;99.00;;;;;;5065177;28;20899;-55
2022/02/19 08:57:38;;;;;;;8.40;1.40;;;9.40;98.80;;;;;;5067252;28;20388;-59
2022/02/19 09:00:07;;;;;;;8.93;1.60;;;10.10;97.50;;;;;;5065538;28;20389;-56
2022/02/19 09:02:32;;;;;;;9.23;1.50;;;9.70;98.00;;;;;;5065465;28;20399;-55
2022/02/19 09:04:58;;;;;;;5.60;1.23;;;9.90;97.90;;;;;;5055129;28;20453;-56
2022/02/19 09:07:24;;;;;;;10.65;1.70;;;9.70;97.50;;;;;;5078268;28;20418;-55
2022/02/19 09:09:49;;;;;;;8.60;1.20;;;10.00;96.80;;;;;;5069504;28;20718;-55
2022/02/19 09:12:15;;;;;;;12.50;2.17;;;10.40;96.80;;;;;;5072104;28;20862;-55
2022/02/19 09:14:41;;;;;;;9.18;1.60;;;10.50;96.90;;;;;;5071764;28;20379;-58
2022/02/19 09:17:07;;;;;;;8.80;1.40;;;10.50;95.80;;;;;;5072100;28;20387;-55
2022/02/19 09:19:33;;;;;;;6.30;1.60;;;9.70;96.20;;;;;;5071530;28;20411;-55
2022/02/19 09:22:02;;;;;;;9.40;1.48;;;9.30;97.10;;;;;;5067880;28;20389;-55
2022/02/19 09:24:29;;;;;;;7.60;1.52;;;9.70;96.90;;;;;;5055759;28;20759;-55
2022/02/19 09:26:55;;;;;;;7.60;1.70;;;10.00;96.10;;;;;;5051071;28;20851;-56
2022/02/19 09:29:22;;;;;;;6.80;1.20;;;10.70;95.20;;;;;;5066662;28;20480;-55
2022/02/19 09:31:47;;;;;;;9.10;1.70;;;10.00;94.40;;;;;;5067326;28;20385;-55
2022/02/19 09:34:13;;;;;;;10.13;1.50;;;10.00;94.80;;;;;;5071075;28;20397;-56
2022/02/19 09:36:39;;;;;;;8.20;1.07;;;10.20;94.30;;;;;;5081339;28;20394;-58
2022/02/19 09:39:06;;;;;;;8.38;1.30;;;10.20;94.20;;;;;;5065991;28;20387;-56
2022/02/19 09:41:33;;;;;;;7.78;1.38;;;10.60;94.10;;;;;;5071098;28;20528;-56
2022/02/19 09:44:02;;;;;;;8.23;1.38;;;11.30;93.20;;;;;;5065411;28;20875;-56
2022/02/19 09:46:31;;;;;;;10.10;1.80;;;11.30;92.40;;;;;;5068502;28;20412;-56
2022/02/19 09:48:57;;;;;;;6.30;1.35;;;10.80;93.00;;;;;;5068083;28;20513;-56
2022/02/19 09:51:23;;;;;;;8.45;1.60;;;10.60;93.00;;;;;;5065381;28;20396;-55
2022/02/19 09:53:48;;;;;;;7.35;1.30;;;10.50;93.40;;;;;;5060480;28;20402;-55
2022/02/19 09:56:14;;;;;;;9.00;1.67;;;10.60;92.60;;;;;;5066227;28;20766;-56
2022/02/19 09:58:43;;;;;;;6.28;1.30;;;11.20;92.80;;;;;;5066819;28;20391;-58
2022/02/19 10:01:22;;;;;;;8.30;1.50;;;10.80;91.60;;;;;;5069747;28;20423;-55
2022/02/19 10:04:01;;;;;;;8.43;1.60;;;11.00;92.00;;;;;;5067901;28;20387;-56
2022/02/19 10:06:38;;;;;;;6.15;1.30;;;11.70;92.20;;;;;;5072337;28;20391;-55
2022/02/19 10:09:17;;;;;;;6.53;1.50;;;11.80;90.80;;;;;;5068351;28;20415;-55
2022/02/19 10:11:45;;;;;;;5.18;1.10;;;10.70;91.30;;;;;;5070443;28;20417;-58
2022/02/19 10:14:26;;;;;;;6.07;1.40;;;10.30;91.30;;;;;;5072727;28;20409;-57
2022/02/19 10:17:17;;;;;;;6.57;1.47;;;10.10;92.30;;;;;;5072926;28;20441;-56
2022/02/19 10:20:04;;;;;;;7.15;1.23;;;10.70;91.30;;;;;;5070394;28;20419;-58
2022/02/19 10:22:34;;;;;;;8.23;1.38;;;11.40;91.30;;;;;;5070217;28;20383;-56
2022/02/19 10:25:02;;;;;;;5.40;1.70;;;11.50;90.00;;;;;;5069562;28;20379;-56
2022/02/19 10:27:51;;;;;;;5.30;1.10;;;11.00;90.20;;;;;;5070284;28;20400;-56
2022/02/19 10:30:20;;;;;;;6.32;1.48;;;10.90;90.30;;;;;;5066801;28;20417;-56
2022/02/19 10:33:06;;;;;;;7.40;1.40;;;11.40;90.80;;;;;;5067305;28;20400;-57
2022/02/19 10:35:37;;;;;;;11.20;1.58;;;11.90;90.30;;;;;;5051462;28;20403;-54
2022/02/19 10:38:06;;;;;;;7.55;1.60;;;12.70;89.70;;;;;;5064788;28;20392;-56
2022/02/19 10:40:58;;;;;;;7.00;1.50;;;12.70;86.40;;;;;;5047582;28;20400;-56
2022/02/19 10:43:31;;;;;;;7.93;1.90;;;12.80;87.20;;;;;;5062560;28;20404;-55
2022/02/19 10:45:59;;;;;;;8.17;1.70;;;13.10;83.90;;;;;;5069260;28;20399;-55
2022/02/19 10:48:35;;;;;;;5.28;1.38;;;13.10;84.00;;;;;;5068576;28;20427;-56
2022/02/19 10:51:15;;;;;;;9.80;1.88;;;13.60;81.70;;;;;;5069142;28;21150;-55
2022/02/19 10:53:49;;;;;;;6.90;1.70;;;13.90;79.80;;;;;;5063813;28;20417;-57
2022/02/19 10:56:17;;;;;;;8.77;1.52;;;13.30;78.80;;;;;;5072666;28;20819;-55
2022/02/19 10:59:02;;;;;;;8.40;1.77;;;12.80;78.20;;;;;;5053481;28;20393;-56
2022/02/19 11:01:36;;;;;;;6.75;1.23;;;13.00;79.60;;;;;;5049993;28;20425;-55
2022/02/19 11:04:03;;;;;;;9.88;1.92;;;13.30;78.10;;;;;;5049116;28;20385;-55
2022/02/19 11:06:29;;;;;;;6.57;1.23;;;14.10;75.40;;;;;;5032845;28;20389;-55
2022/02/19 11:08:54;;;;;;;7.55;1.67;;;13.50;71.20;;;;;;5049466;28;20414;-55
2022/02/19 11:11:20;;;;;;;6.22;1.60;;;12.30;73.20;;;;;;5050160;28;20378;-55
2022/02/19 11:13:47;;;;;;;5.80;1.10;;;12.20;73.80;;;;;;5057071;28;20407;-56
2022/02/19 11:16:13;;;;;;;7.00;1.40;;;12.30;73.10;;;;;;5069614;28;20841;-55
2022/02/19 11:18:39;;;;;;;7.90;1.70;;;13.00;74.80;;;;;;5069398;28;20407;-58
2022/02/19 11:21:05;;;;;;;6.40;1.70;;;12.70;73.20;;;;;;5069631;28;20383;-55
2022/02/19 11:23:33;;;;;;;5.90;1.67;;;12.20;74.40;;;;;;5069733;28;20466;-55
2022/02/19 11:26:00;;;;;;;6.40;1.40;;;12.50;74.20;;;;;;5053480;28;20401;-56
2022/02/19 11:28:33;;;;;;;8.52;1.40;;;12.60;74.30;;;;;;5069181;28;20888;-55
2022/02/19 11:31:00;;;;;;;9.10;1.90;;;12.70;71.70;;;;;;5076587;28;20962;-56
2022/02/19 11:33:29;;;;;;;7.05;1.63;;;12.20;72.20;;;;;;5068981;28;20384;-55
2022/02/19 11:36:03;;;;;;;7.18;1.30;;;11.70;74.20;;;;;;5050650;28;20461;-55
2022/02/19 11:38:30;;;;;;;7.90;1.50;;;12.00;76.00;;;;;;5069582;28;20943;-56
2022/02/19 11:41:01;;;;;;;5.97;1.40;;;11.70;72.80;;;;;;5069103;28;20376;-55
2022/02/19 11:43:37;;;;;;;8.18;1.50;;;11.10;74.90;;;;;;5069956;28;20371;-56
2022/02/19 11:46:23;;;;;;;9.20;1.60;;;10.80;75.30;;;;;;5068064;28;20383;-58
2022/02/19 11:48:50;;;;;;;7.55;1.30;;;10.80;76.50;;;;;;5053609;28;20434;-56
2022/02/19 11:51:28;;;;;;;7.78;1.50;;;10.70;77.20;;;;;;5073364;28;20472;-56
2022/02/19 11:54:03;;;;;;;8.00;1.30;;;10.10;76.30;;;;;;5048008;28;20397;-56
2022/02/19 11:56:37;;;;;;;6.82;1.27;;;10.00;77.70;;;;;;5050158;28;20385;-56
2022/02/19 11:59:09;;;;;;;8.80;1.50;;;9.70;80.10;;;;;;5069238;28;20498;-56
2022/02/19 12:01:35;;;;;;;5.90;1.13;;;9.50;79.80;;;;;;5063612;28;22502;-55
2022/02/19 12:04:13;;;;;;;9.10;1.73;;;9.10;80.50;;;;;;5065213;28;20403;-53
2022/02/19 12:06:46;;;;;;;5.43;1.60;;;9.00;81.00;;;;;;5061496;28;20391;-55
2022/02/19 12:09:19;;;;;;;7.20;1.70;;;9.30;82.30;;;;;;5066229;28;20482;-55
2022/02/19 12:11:58;;;;;;;8.98;1.55;;;10.00;83.00;;;;;;5069718;28;20390;-56
2022/02/19 12:14:44;;;;;;;9.20;2.00;;;9.80;82.50;;;;;;5066191;28;20709;-56
2022/02/19 12:17:11;;;;;;;7.63;1.90;;;10.00;82.00;;;;;;5049440;28;20389;-56
2022/02/19 12:20:00;;;;;;;6.30;1.40;;;10.30;81.10;;;;;;5068346;28;20423;-55
2022/02/19 12:22:50;;;;;;;9.45;1.42;;;10.40;81.10;;;;;;5069568;28;20423;-55
2022/02/19 12:25:18;;;;;;;9.93;1.50;;;10.50;81.40;;;;;;5069452;28;20382;-55
2022/02/19 12:28:14;;;;;;;7.18;1.50;;;10.70;81.90;;;;;;5065018;28;20411;-59
2022/02/19 12:30:39;;;;;;;8.20;1.48;;;10.30;79.30;;;;;;5069056;28;20880;-58
2022/02/19 12:33:05;;;;;;;6.80;1.38;;;10.40;82.70;;;;;;5068631;28;20384;-55
2022/02/19 12:35:45;;;;;;;9.10;2.40;;;10.60;81.70;;;;;;5069036;28;20531;-55
2022/02/19 12:38:12;;;;;;;7.00;1.40;;;10.80;83.10;;;;;;5069107;28;20780;-55
2022/02/19 12:40:38;;;;;;;10.55;1.60;;;11.00;83.00;;;;;;5069427;28;20376;-55
2022/02/19 12:43:04;;;;;;;6.83;1.50;;;10.80;82.00;;;;;;5067131;28;20942;-56
2022/02/19 12:45:34;;;;;;;6.00;1.30;;;11.00;80.90;;;;;;5068994;28;20861;-55
2022/02/19 12:48:00;;;;;;;5.13;1.00;;;11.00;81.00;;;;;;5068312;28;21287;-55
2022/02/19 12:50:26;;;;;;;9.70;1.30;;;11.10;81.60;;;;;;5051129;28;20745;-56
2022/02/19 12:52:53;;;;;;;7.33;1.40;;;10.90;80.70;;;;;;5068555;28;20364;-55
2022/02/19 12:55:20;;;;;;;8.93;1.50;;;10.70;80.70;;;;;;5069337;28;20375;-56
2022/02/19 12:57:47;;;;;;;8.23;1.60;;;10.80;80.80;;;;;;5068024;28;20387;-56
2022/02/19 13:00:14;;;;;;;9.00;1.35;;;10.80;79.80;;;;;;5051063;28;20863;-55
2022/02/19 13:02:40;;;;;;;7.90;1.40;;;10.50;78.80;;;;;;5068932;28;20380;-59